sensor_id;sensor_type;location;lat;lon;timestamp;temperature;humidity
9984;DHT22;16737;50.932;6.780;2022-10-16T00:00:42;17.70;99.30
9984;DHT22;16737;50.932;6.780;2022-10-16T00:03:10;17.70;99.20
9984;DHT22;16737;50.932;6.780;2022-10-16T00:05:42;17.70;99.20
9984;DHT22;16737;50.932;6.780;2022-10-16T00:08:11;17.70;99.20
9984;DHT22;16737;50.932;6.780;2022-10-16T00:10:39;17.70;99.20
9984;DHT22;16737;50.932;6.780;2022-10-16T00:13:06;17.70;99.20
9984;DHT22;16737;50.932;6.780;2022-10-16T00:15:34;17.70;99.20
9984;DHT22;16737;50.932;6.780;2022-10-16T00:18:04;17.70;99.20
9984;DHT22;16737;50.932;6.780;2022-10-16T00:20:34;17.70;99.20
9984;DHT22;16737;50.932;6.780;2022-10-16T00:23:02;17.70;99.20
9984;DHT22;16737;50.932;6.780;2022-10-16T00:25:30;17.70;99.20
9984;DHT22;16737;50.932;6.780;2022-10-16T00:27:59;17.70;99.20
9984;DHT22;16737;50.932;6.780;2022-10-16T00:30:26;17.70;99.20
9984;DHT22;16737;50.932;6.780;2022-10-16T00:32:54;17.70;99.10
9984;DHT22;16737;50.932;6.780;2022-10-16T00:35:23;17.70;99.10
9984;DHT22;16737;50.932;6.780;2022-10-16T00:37:50;17.70;99.10
9984;DHT22;16737;50.932;6.780;2022-10-16T00:40:17;17.70;99.10
9984;DHT22;16737;50.932;6.780;2022-10-16T00:42:44;17.60;99.10
9984;DHT22;16737;50.932;6.780;2022-10-16T00:45:11;17.60;99.10
9984;DHT22;16737;50.932;6.780;2022-10-16T00:47:40;17.60;99.10
9984;DHT22;16737;50.932;6.780;2022-10-16T00:50:16;17.60;99.10
9984;DHT22;16737;50.932;6.780;2022-10-16T00:52:48;17.60;99.00
9984;DHT22;16737;50.932;6.780;2022-10-16T00:55:18;17.60;99.00
9984;DHT22;16737;50.932;6.780;2022-10-16T00:57:46;17.60;99.00
9984;DHT22;16737;50.932;6.780;2022-10-16T01:00:17;17.50;98.90
9984;DHT22;16737;50.932;6.780;2022-10-16T01:02:52;17.50;98.90
9984;DHT22;16737;50.932;6.780;2022-10-16T01:05:20;17.50;99.00
9984;DHT22;16737;50.932;6.780;2022-10-16T01:07:56;17.50;98.90
9984;DHT22;16737;50.932;6.780;2022-10-16T01:10:34;17.50;98.90
9984;DHT22;16737;50.932;6.780;2022-10-16T01:13:07;17.40;98.90
9984;DHT22;16737;50.932;6.780;2022-10-16T01:15:38;17.40;98.90
9984;DHT22;16737;50.932;6.780;2022-10-16T01:18:16;17.40;98.90
9984;DHT22;16737;50.932;6.780;2022-10-16T01:20:50;17.40;98.90
9984;DHT22;16737;50.932;6.780;2022-10-16T01:23:36;17.40;98.90
9984;DHT22;16737;50.932;6.780;2022-10-16T01:26:23;17.30;98.90
9984;DHT22;16737;50.932;6.780;2022-10-16T01:29:03;17.30;98.90
9984;DHT22;16737;50.932;6.780;2022-10-16T01:31:38;17.30;98.80
9984;DHT22;16737;50.932;6.780;2022-10-16T01:34:12;17.20;98.80
9984;DHT22;16737;50.932;6.780;2022-10-16T01:36:44;17.20;98.90
9984;DHT22;16737;50.932;6.780;2022-10-16T01:39:21;17.10;98.90
9984;DHT22;16737;50.932;6.780;2022-10-16T01:41:57;17.10;98.90
9984;DHT22;16737;50.932;6.780;2022-10-16T01:44:32;17.10;98.90
9984;DHT22;16737;50.932;6.780;2022-10-16T01:47:02;17.10;99.00
9984;DHT22;16737;50.932;6.780;2022-10-16T01:49:33;17.10;99.00
9984;DHT22;16737;50.932;6.780;2022-10-16T01:52:06;17.10;99.00
9984;DHT22;16737;50.932;6.780;2022-10-16T01:54:39;17.10;99.00
9984;DHT22;16737;50.932;6.780;2022-10-16T01:57:10;17.10;99.00
9984;DHT22;16737;50.932;6.780;2022-10-16T01:59:44;17.10;99.00
9984;DHT22;16737;50.932;6.780;2022-10-16T02:02:15;17.00;99.00
9984;DHT22;16737;50.932;6.780;2022-10-16T02:04:46;17.00;99.00
9984;DHT22;16737;50.932;6.780;2022-10-16T02:07:16;17.00;99.00
9984;DHT22;16737;50.932;6.780;2022-10-16T02:09:43;17.00;99.00
9984;DHT22;16737;50.932;6.780;2022-10-16T02:12:15;17.00;99.10
9984;DHT22;16737;50.932;6.780;2022-10-16T02:14:48;17.00;99.10
9984;DHT22;16737;50.932;6.780;2022-10-16T02:17:16;16.90;99.00
9984;DHT22;16737;50.932;6.780;2022-10-16T02:19:45;17.00;99.10
9984;DHT22;16737;50.932;6.780;2022-10-16T02:22:19;17.00;99.10
9984;DHT22;16737;50.932;6.780;2022-10-16T02:24:53;17.10;99.10
9984;DHT22;16737;50.932;6.780;2022-10-16T02:27:26;17.10;99.10
9984;DHT22;16737;50.932;6.780;2022-10-16T02:30:02;17.10;99.10
9984;DHT22;16737;50.932;6.780;2022-10-16T02:32:35;17.10;99.40
9984;DHT22;16737;50.932;6.780;2022-10-16T02:35:07;17.10;99.00
9984;DHT22;16737;50.932;6.780;2022-10-16T02:37:36;17.10;99.00
9984;DHT22;16737;50.932;6.780;2022-10-16T02:40:06;17.10;99.00
9984;DHT22;16737;50.932;6.780;2022-10-16T02:42:35;17.10;99.00
9984;DHT22;16737;50.932;6.780;2022-10-16T02:45:05;17.10;99.00
9984;DHT22;16737;50.932;6.780;2022-10-16T02:47:34;17.10;98.90
9984;DHT22;16737;50.932;6.780;2022-10-16T02:50:01;17.10;98.90
9984;DHT22;16737;50.932;6.780;2022-10-16T02:52:27;17.10;98.90
9984;DHT22;16737;50.932;6.780;2022-10-16T02:54:54;17.20;99.00
9984;DHT22;16737;50.932;6.780;2022-10-16T02:57:21;17.10;98.90
9984;DHT22;16737;50.932;6.780;2022-10-16T02:59:48;17.10;98.90
9984;DHT22;16737;50.932;6.780;2022-10-16T03:02:16;17.20;98.90
9984;DHT22;16737;50.932;6.780;2022-10-16T03:04:43;17.10;98.80
9984;DHT22;16737;50.932;6.780;2022-10-16T03:07:10;17.10;98.70
9984;DHT22;16737;50.932;6.780;2022-10-16T03:09:37;17.10;98.70
9984;DHT22;16737;50.932;6.780;2022-10-16T03:12:04;17.10;98.70
9984;DHT22;16737;50.932;6.780;2022-10-16T03:14:32;17.10;98.60
9984;DHT22;16737;50.932;6.780;2022-10-16T03:16:59;17.10;98.60
9984;DHT22;16737;50.932;6.780;2022-10-16T03:19:27;17.10;98.60
9984;DHT22;16737;50.932;6.780;2022-10-16T03:21:54;17.10;98.50
9984;DHT22;16737;50.932;6.780;2022-10-16T03:24:21;17.10;98.60
9984;DHT22;16737;50.932;6.780;2022-10-16T03:26:48;17.10;98.60
9984;DHT22;16737;50.932;6.780;2022-10-16T03:29:15;17.10;98.50
9984;DHT22;16737;50.932;6.780;2022-10-16T03:31:41;17.10;98.50
9984;DHT22;16737;50.932;6.780;2022-10-16T03:34:08;17.10;98.50
9984;DHT22;16737;50.932;6.780;2022-10-16T03:36:36;17.10;98.50
9984;DHT22;16737;50.932;6.780;2022-10-16T03:39:03;17.10;98.50
9984;DHT22;16737;50.932;6.780;2022-10-16T03:41:30;17.10;98.50
9984;DHT22;16737;50.932;6.780;2022-10-16T03:43:57;17.10;98.50
9984;DHT22;16737;50.932;6.780;2022-10-16T03:46:24;17.10;98.50
9984;DHT22;16737;50.932;6.780;2022-10-16T03:48:51;17.10;98.50
9984;DHT22;16737;50.932;6.780;2022-10-16T03:51:18;17.10;98.60
9984;DHT22;16737;50.932;6.780;2022-10-16T03:53:46;17.10;98.50
9984;DHT22;16737;50.932;6.780;2022-10-16T03:56:13;17.10;98.50
9984;DHT22;16737;50.932;6.780;2022-10-16T03:58:40;17.10;98.60
9984;DHT22;16737;50.932;6.780;2022-10-16T04:01:07;17.10;98.60
9984;DHT22;16737;50.932;6.780;2022-10-16T04:03:34;17.10;98.60
9984;DHT22;16737;50.932;6.780;2022-10-16T04:06:01;17.10;98.60
9984;DHT22;16737;50.932;6.780;2022-10-16T04:08:28;17.10;98.60
9984;DHT22;16737;50.932;6.780;2022-10-16T04:10:56;17.10;98.60
9984;DHT22;16737;50.932;6.780;2022-10-16T04:13:23;17.10;98.60
9984;DHT22;16737;50.932;6.780;2022-10-16T04:15:50;17.10;98.60
9984;DHT22;16737;50.932;6.780;2022-10-16T04:18:17;17.10;98.60
9984;DHT22;16737;50.932;6.780;2022-10-16T04:20:44;17.10;98.60
9984;DHT22;16737;50.932;6.780;2022-10-16T04:23:11;17.20;98.60
9984;DHT22;16737;50.932;6.780;2022-10-16T04:25:38;17.20;98.60
9984;DHT22;16737;50.932;6.780;2022-10-16T04:28:06;17.20;98.90
9984;DHT22;16737;50.932;6.780;2022-10-16T04:30:33;17.20;98.60
9984;DHT22;16737;50.932;6.780;2022-10-16T04:33:00;17.20;98.60
9984;DHT22;16737;50.932;6.780;2022-10-16T04:35:27;17.20;98.60
9984;DHT22;16737;50.932;6.780;2022-10-16T04:37:56;17.20;98.60
9984;DHT22;16737;50.932;6.780;2022-10-16T04:40:23;17.20;98.60
9984;DHT22;16737;50.932;6.780;2022-10-16T04:42:50;17.20;98.50
9984;DHT22;16737;50.932;6.780;2022-10-16T04:45:19;17.20;98.60
9984;DHT22;16737;50.932;6.780;2022-10-16T04:47:46;17.20;98.60
9984;DHT22;16737;50.932;6.780;2022-10-16T04:50:13;17.20;98.60
9984;DHT22;16737;50.932;6.780;2022-10-16T04:52:40;17.20;98.60
9984;DHT22;16737;50.932;6.780;2022-10-16T04:55:07;17.20;98.50
9984;DHT22;16737;50.932;6.780;2022-10-16T04:57:34;17.20;98.60
9984;DHT22;16737;50.932;6.780;2022-10-16T05:00:01;17.20;98.60
9984;DHT22;16737;50.932;6.780;2022-10-16T05:02:30;17.20;98.60
9984;DHT22;16737;50.932;6.780;2022-10-16T05:04:57;17.20;98.60
9984;DHT22;16737;50.932;6.780;2022-10-16T05:07:24;17.20;98.60
9984;DHT22;16737;50.932;6.780;2022-10-16T05:09:51;17.20;98.60
9984;DHT22;16737;50.932;6.780;2022-10-16T05:12:18;17.10;98.60
9984;DHT22;16737;50.932;6.780;2022-10-16T05:14:45;17.10;98.60
9984;DHT22;16737;50.932;6.780;2022-10-16T05:17:12;17.20;98.70
9984;DHT22;16737;50.932;6.780;2022-10-16T05:19:41;17.20;98.70
9984;DHT22;16737;50.932;6.780;2022-10-16T05:22:08;17.20;98.70
9984;DHT22;16737;50.932;6.780;2022-10-16T05:24:35;17.20;98.70
9984;DHT22;16737;50.932;6.780;2022-10-16T05:27:01;17.20;98.70
9984;DHT22;16737;50.932;6.780;2022-10-16T05:29:28;17.20;98.70
9984;DHT22;16737;50.932;6.780;2022-10-16T05:31:56;17.20;98.70
9984;DHT22;16737;50.932;6.780;2022-10-16T05:34:23;17.20;98.70
9984;DHT22;16737;50.932;6.780;2022-10-16T05:36:51;17.20;98.70
9984;DHT22;16737;50.932;6.780;2022-10-16T05:39:18;17.20;98.70
9984;DHT22;16737;50.932;6.780;2022-10-16T05:41:45;17.20;98.70
9984;DHT22;16737;50.932;6.780;2022-10-16T05:44:12;17.20;98.70
9984;DHT22;16737;50.932;6.780;2022-10-16T05:46:39;17.30;98.80
9984;DHT22;16737;50.932;6.780;2022-10-16T05:49:06;17.20;98.70
9984;DHT22;16737;50.932;6.780;2022-10-16T05:51:32;17.30;98.80
9984;DHT22;16737;50.932;6.780;2022-10-16T05:54:01;17.30;98.80
9984;DHT22;16737;50.932;6.780;2022-10-16T05:56:28;17.30;98.70
9984;DHT22;16737;50.932;6.780;2022-10-16T05:58:55;17.30;98.70
9984;DHT22;16737;50.932;6.780;2022-10-16T06:01:22;17.30;98.80
9984;DHT22;16737;50.932;6.780;2022-10-16T06:03:50;17.20;98.70
9984;DHT22;16737;50.932;6.780;2022-10-16T06:06:18;17.20;98.70
9984;DHT22;16737;50.932;6.780;2022-10-16T06:08:47;17.20;98.70
9984;DHT22;16737;50.932;6.780;2022-10-16T06:11:19;17.20;98.70
9984;DHT22;16737;50.932;6.780;2022-10-16T06:13:49;17.20;98.70
9984;DHT22;16737;50.932;6.780;2022-10-16T06:16:16;17.20;98.70
9984;DHT22;16737;50.932;6.780;2022-10-16T06:18:44;17.20;98.70
9984;DHT22;16737;50.932;6.780;2022-10-16T06:21:12;17.20;98.70
9984;DHT22;16737;50.932;6.780;2022-10-16T06:23:42;17.20;98.70
9984;DHT22;16737;50.932;6.780;2022-10-16T06:26:13;17.20;98.70
9984;DHT22;16737;50.932;6.780;2022-10-16T06:28:43;17.20;98.80
9984;DHT22;16737;50.932;6.780;2022-10-16T06:31:11;17.10;98.80
9984;DHT22;16737;50.932;6.780;2022-10-16T06:33:39;17.10;98.80
9984;DHT22;16737;50.932;6.780;2022-10-16T06:36:08;17.10;98.80
9984;DHT22;16737;50.932;6.780;2022-10-16T06:38:36;17.10;98.90
9984;DHT22;16737;50.932;6.780;2022-10-16T06:41:05;17.10;98.90
9984;DHT22;16737;50.932;6.780;2022-10-16T06:43:33;17.10;99.00
9984;DHT22;16737;50.932;6.780;2022-10-16T06:46:03;17.10;99.00
9984;DHT22;16737;50.932;6.780;2022-10-16T06:48:33;17.10;99.10
9984;DHT22;16737;50.932;6.780;2022-10-16T06:51:01;17.10;99.10
9984;DHT22;16737;50.932;6.780;2022-10-16T06:53:31;17.20;99.20
9984;DHT22;16737;50.932;6.780;2022-10-16T06:56:07;17.20;99.30
9984;DHT22;16737;50.932;6.780;2022-10-16T06:58:34;17.20;99.30
9984;DHT22;16737;50.932;6.780;2022-10-16T07:01:03;17.30;99.30
9984;DHT22;16737;50.932;6.780;2022-10-16T07:03:30;17.30;99.30
9984;DHT22;16737;50.932;6.780;2022-10-16T07:06:01;17.40;99.40
9984;DHT22;16737;50.932;6.780;2022-10-16T07:08:31;17.40;99.40
9984;DHT22;16737;50.932;6.780;2022-10-16T07:10:59;17.40;99.40
9984;DHT22;16737;50.932;6.780;2022-10-16T07:13:27;17.50;99.50
9984;DHT22;16737;50.932;6.780;2022-10-16T07:15:54;17.50;99.40
9984;DHT22;16737;50.932;6.780;2022-10-16T07:18:22;17.50;99.40
9984;DHT22;16737;50.932;6.780;2022-10-16T07:20:52;17.60;99.50
9984;DHT22;16737;50.932;6.780;2022-10-16T07:23:19;17.60;99.50
9984;DHT22;16737;50.932;6.780;2022-10-16T07:25:53;17.70;99.50
9984;DHT22;16737;50.932;6.780;2022-10-16T07:28:21;17.80;99.60
9984;DHT22;16737;50.932;6.780;2022-10-16T07:30:48;17.80;99.50
9984;DHT22;16737;50.932;6.780;2022-10-16T07:33:15;17.80;99.40
9984;DHT22;16737;50.932;6.780;2022-10-16T07:35:49;17.90;99.40
9984;DHT22;16737;50.932;6.780;2022-10-16T07:38:16;17.90;99.40
9984;DHT22;16737;50.932;6.780;2022-10-16T07:40:44;17.90;99.40
9984;DHT22;16737;50.932;6.780;2022-10-16T07:43:12;18.00;99.50
9984;DHT22;16737;50.932;6.780;2022-10-16T07:45:47;18.00;99.40
9984;DHT22;16737;50.932;6.780;2022-10-16T07:48:15;18.10;99.30
9984;DHT22;16737;50.932;6.780;2022-10-16T07:50:42;18.10;99.30
9984;DHT22;16737;50.932;6.780;2022-10-16T07:53:12;18.10;99.30
9984;DHT22;16737;50.932;6.780;2022-10-16T07:55:39;18.10;99.30
9984;DHT22;16737;50.932;6.780;2022-10-16T07:58:06;18.10;99.30
9984;DHT22;16737;50.932;6.780;2022-10-16T08:00:33;18.20;99.30
9984;DHT22;16737;50.932;6.780;2022-10-16T08:03:02;18.20;99.20
9984;DHT22;16737;50.932;6.780;2022-10-16T08:05:31;18.20;99.20
9984;DHT22;16737;50.932;6.780;2022-10-16T08:08:00;18.20;99.20
9984;DHT22;16737;50.932;6.780;2022-10-16T08:10:29;18.30;99.30
9984;DHT22;16737;50.932;6.780;2022-10-16T08:12:57;18.30;99.40
9984;DHT22;16737;50.932;6.780;2022-10-16T08:15:25;18.40;99.60
9984;DHT22;16737;50.932;6.780;2022-10-16T08:17:56;18.40;99.70
9984;DHT22;16737;50.932;6.780;2022-10-16T08:20:25;18.50;99.80
9984;DHT22;16737;50.932;6.780;2022-10-16T08:22:53;18.60;99.90
9984;DHT22;16737;50.932;6.780;2022-10-16T08:25:21;18.70;99.90
9984;DHT22;16737;50.932;6.780;2022-10-16T08:27:50;18.70;99.80
9984;DHT22;16737;50.932;6.780;2022-10-16T08:30:18;18.80;99.80
9984;DHT22;16737;50.932;6.780;2022-10-16T08:32:47;18.90;99.90
9984;DHT22;16737;50.932;6.780;2022-10-16T08:35:14;19.00;99.80
9984;DHT22;16737;50.932;6.780;2022-10-16T08:37:42;19.10;99.80
9984;DHT22;16737;50.932;6.780;2022-10-16T08:40:17;19.20;99.80
9984;DHT22;16737;50.932;6.780;2022-10-16T08:43:15;19.30;99.60
9984;DHT22;16737;50.932;6.780;2022-10-16T08:46:18;19.40;99.50
9984;DHT22;16737;50.932;6.780;2022-10-16T08:48:58;19.50;99.60
9984;DHT22;16737;50.932;6.780;2022-10-16T08:51:27;19.60;99.60
9984;DHT22;16737;50.932;6.780;2022-10-16T08:53:58;19.70;99.40
9984;DHT22;16737;50.932;6.780;2022-10-16T08:56:28;19.80;99.50
9984;DHT22;16737;50.932;6.780;2022-10-16T08:58:58;19.80;99.50
9984;DHT22;16737;50.932;6.780;2022-10-16T09:01:35;19.90;99.40
9984;DHT22;16737;50.932;6.780;2022-10-16T09:07:25;20.10;98.80
9984;DHT22;16737;50.932;6.780;2022-10-16T09:10:17;20.20;99.00
9984;DHT22;16737;50.932;6.780;2022-10-16T09:12:59;20.30;98.90
9984;DHT22;16737;50.932;6.780;2022-10-16T09:15:41;20.30;98.80
9984;DHT22;16737;50.932;6.780;2022-10-16T09:18:17;20.40;98.60
9984;DHT22;16737;50.932;6.780;2022-10-16T09:20:55;20.50;98.70
9984;DHT22;16737;50.932;6.780;2022-10-16T09:23:29;20.50;98.50
9984;DHT22;16737;50.932;6.780;2022-10-16T09:25:58;20.60;98.70
9984;DHT22;16737;50.932;6.780;2022-10-16T09:28:26;20.70;98.70
9984;DHT22;16737;50.932;6.780;2022-10-16T09:30:54;20.70;98.60
9984;DHT22;16737;50.932;6.780;2022-10-16T09:33:25;20.80;98.70
9984;DHT22;16737;50.932;6.780;2022-10-16T09:35:57;20.90;98.70
9984;DHT22;16737;50.932;6.780;2022-10-16T09:38:26;21.00;98.50
9984;DHT22;16737;50.932;6.780;2022-10-16T09:40:55;21.00;98.50
9984;DHT22;16737;50.932;6.780;2022-10-16T09:43:26;21.10;98.50
9984;DHT22;16737;50.932;6.780;2022-10-16T09:46:02;21.20;98.50
9984;DHT22;16737;50.932;6.780;2022-10-16T09:48:36;21.30;98.20
9984;DHT22;16737;50.932;6.780;2022-10-16T09:51:13;21.40;98.20
9984;DHT22;16737;50.932;6.780;2022-10-16T09:53:46;21.50;98.30
9984;DHT22;16737;50.932;6.780;2022-10-16T09:56:21;21.60;98.20
9984;DHT22;16737;50.932;6.780;2022-10-16T09:58:50;21.70;97.80
9984;DHT22;16737;50.932;6.780;2022-10-16T10:01:20;21.80;98.00
9984;DHT22;16737;50.932;6.780;2022-10-16T10:03:50;21.80;97.60
9984;DHT22;16737;50.932;6.780;2022-10-16T10:06:22;21.90;97.70
9984;DHT22;16737;50.932;6.780;2022-10-16T10:08:55;22.00;97.80
9984;DHT22;16737;50.932;6.780;2022-10-16T10:11:47;22.10;97.40
9984;DHT22;16737;50.932;6.780;2022-10-16T10:14:22;22.10;97.40
9984;DHT22;16737;50.932;6.780;2022-10-16T10:17:06;22.20;97.60
9984;DHT22;16737;50.932;6.780;2022-10-16T10:19:38;22.30;97.60
9984;DHT22;16737;50.932;6.780;2022-10-16T10:22:25;22.40;97.40
9984;DHT22;16737;50.932;6.780;2022-10-16T10:25:15;22.50;96.80
9984;DHT22;16737;50.932;6.780;2022-10-16T10:28:00;22.60;97.20
9984;DHT22;16737;50.932;6.780;2022-10-16T10:30:38;22.70;96.60
9984;DHT22;16737;50.932;6.780;2022-10-16T10:33:20;22.80;96.80
9984;DHT22;16737;50.932;6.780;2022-10-16T10:35:58;22.80;95.90
9984;DHT22;16737;50.932;6.780;2022-10-16T10:38:41;22.80;95.90
9984;DHT22;16737;50.932;6.780;2022-10-16T10:41:33;22.80;95.60
9984;DHT22;16737;50.932;6.780;2022-10-16T10:44:27;22.80;95.30
9984;DHT22;16737;50.932;6.780;2022-10-16T10:47:13;22.70;95.30
9984;DHT22;16737;50.932;6.780;2022-10-16T10:49:56;22.70;94.90
9984;DHT22;16737;50.932;6.780;2022-10-16T10:52:41;22.60;94.70
9984;DHT22;16737;50.932;6.780;2022-10-16T10:55:23;22.60;94.60
9984;DHT22;16737;50.932;6.780;2022-10-16T10:58:15;22.50;94.60
9984;DHT22;16737;50.932;6.780;2022-10-16T11:01:08;22.50;94.40
9984;DHT22;16737;50.932;6.780;2022-10-16T11:07:00;22.50;94.30
9984;DHT22;16737;50.932;6.780;2022-10-16T11:09:34;22.50;94.80
9984;DHT22;16737;50.932;6.780;2022-10-16T11:12:08;22.50;94.60
9984;DHT22;16737;50.932;6.780;2022-10-16T11:14:46;22.50;94.50
9984;DHT22;16737;50.932;6.780;2022-10-16T11:17:21;22.40;94.30
9984;DHT22;16737;50.932;6.780;2022-10-16T11:19:55;22.40;94.40
9984;DHT22;16737;50.932;6.780;2022-10-16T11:22:30;22.40;94.40
9984;DHT22;16737;50.932;6.780;2022-10-16T11:25:04;22.40;94.20
9984;DHT22;16737;50.932;6.780;2022-10-16T11:27:44;22.40;94.40
9984;DHT22;16737;50.932;6.780;2022-10-16T11:30:19;22.40;94.30
9984;DHT22;16737;50.932;6.780;2022-10-16T11:33:03;22.40;94.30
9984;DHT22;16737;50.932;6.780;2022-10-16T11:35:42;22.50;94.30
9984;DHT22;16737;50.932;6.780;2022-10-16T11:38:22;22.50;94.40
9984;DHT22;16737;50.932;6.780;2022-10-16T11:41:00;22.60;93.90
9984;DHT22;16737;50.932;6.780;2022-10-16T11:43:34;22.70;94.40
9984;DHT22;16737;50.932;6.780;2022-10-16T11:46:10;22.80;94.40
9984;DHT22;16737;50.932;6.780;2022-10-16T11:48:45;22.90;94.50
9984;DHT22;16737;50.932;6.780;2022-10-16T11:51:19;22.90;94.50
9984;DHT22;16737;50.932;6.780;2022-10-16T11:53:58;23.10;94.60
9984;DHT22;16737;50.932;6.780;2022-10-16T11:56:32;23.20;94.10
9984;DHT22;16737;50.932;6.780;2022-10-16T11:59:10;23.30;94.40
9984;DHT22;16737;50.932;6.780;2022-10-16T12:01:47;23.40;94.00
9984;DHT22;16737;50.932;6.780;2022-10-16T12:04:23;23.50;94.00
9984;DHT22;16737;50.932;6.780;2022-10-16T12:07:03;23.50;93.70
9984;DHT22;16737;50.932;6.780;2022-10-16T12:09:37;23.60;93.50
9984;DHT22;16737;50.932;6.780;2022-10-16T12:12:24;23.70;93.20
9984;DHT22;16737;50.932;6.780;2022-10-16T12:15:00;23.70;92.80
9984;DHT22;16737;50.932;6.780;2022-10-16T12:17:38;23.80;93.00
9984;DHT22;16737;50.932;6.780;2022-10-16T12:20:27;23.80;92.70
9984;DHT22;16737;50.932;6.780;2022-10-16T12:22:58;23.90;92.50
9984;DHT22;16737;50.932;6.780;2022-10-16T12:25:30;23.90;93.30
9984;DHT22;16737;50.932;6.780;2022-10-16T12:28:04;23.90;92.80
9984;DHT22;16737;50.932;6.780;2022-10-16T12:30:35;23.90;92.80
9984;DHT22;16737;50.932;6.780;2022-10-16T12:33:04;23.90;92.90
9984;DHT22;16737;50.932;6.780;2022-10-16T12:35:44;23.90;92.80
9984;DHT22;16737;50.932;6.780;2022-10-16T12:38:17;23.80;92.30
9984;DHT22;16737;50.932;6.780;2022-10-16T12:40:56;23.80;91.90
9984;DHT22;16737;50.932;6.780;2022-10-16T12:43:37;23.80;91.50
9984;DHT22;16737;50.932;6.780;2022-10-16T12:46:35;23.80;91.20
9984;DHT22;16737;50.932;6.780;2022-10-16T12:49:17;23.70;91.60
9984;DHT22;16737;50.932;6.780;2022-10-16T12:51:50;23.80;92.00
9984;DHT22;16737;50.932;6.780;2022-10-16T12:54:19;23.80;92.40
9984;DHT22;16737;50.932;6.780;2022-10-16T12:56:58;23.80;92.30
9984;DHT22;16737;50.932;6.780;2022-10-16T12:59:44;23.80;91.60
9984;DHT22;16737;50.932;6.780;2022-10-16T13:02:38;23.80;91.90
9984;DHT22;16737;50.932;6.780;2022-10-16T13:05:32;23.90;91.50
9984;DHT22;16737;50.932;6.780;2022-10-16T13:08:22;23.90;91.70
9984;DHT22;16737;50.932;6.780;2022-10-16T13:11:03;23.90;91.90
9984;DHT22;16737;50.932;6.780;2022-10-16T13:13:58;23.90;92.10
9984;DHT22;16737;50.932;6.780;2022-10-16T13:16:50;23.90;91.50
9984;DHT22;16737;50.932;6.780;2022-10-16T13:19:29;23.90;91.20
9984;DHT22;16737;50.932;6.780;2022-10-16T13:22:05;23.90;91.50
9984;DHT22;16737;50.932;6.780;2022-10-16T13:24:52;23.90;91.40
9984;DHT22;16737;50.932;6.780;2022-10-16T13:27:35;23.90;91.20
9984;DHT22;16737;50.932;6.780;2022-10-16T13:30:15;23.90;91.10
9984;DHT22;16737;50.932;6.780;2022-10-16T13:32:46;24.00;91.20
9984;DHT22;16737;50.932;6.780;2022-10-16T13:35:21;24.00;91.80
9984;DHT22;16737;50.932;6.780;2022-10-16T13:37:51;24.00;91.40
9984;DHT22;16737;50.932;6.780;2022-10-16T13:40:29;24.00;91.60
9984;DHT22;16737;50.932;6.780;2022-10-16T13:42:56;24.10;91.40
9984;DHT22;16737;50.932;6.780;2022-10-16T13:45:27;24.10;91.30
9984;DHT22;16737;50.932;6.780;2022-10-16T13:48:02;24.20;91.30
9984;DHT22;16737;50.932;6.780;2022-10-16T13:50:30;24.20;91.20
9984;DHT22;16737;50.932;6.780;2022-10-16T13:53:04;24.20;91.40
9984;DHT22;16737;50.932;6.780;2022-10-16T13:55:32;24.20;91.00
9984;DHT22;16737;50.932;6.780;2022-10-16T13:58:07;24.30;91.30
9984;DHT22;16737;50.932;6.780;2022-10-16T14:00:36;24.30;90.60
9984;DHT22;16737;50.932;6.780;2022-10-16T14:03:04;24.30;91.00
9984;DHT22;16737;50.932;6.780;2022-10-16T14:05:34;24.30;90.90
9984;DHT22;16737;50.932;6.780;2022-10-16T14:08:01;24.30;90.90
9984;DHT22;16737;50.932;6.780;2022-10-16T14:10:30;24.30;90.80
9984;DHT22;16737;50.932;6.780;2022-10-16T14:13:00;24.30;90.50
9984;DHT22;16737;50.932;6.780;2022-10-16T14:15:30;24.30;90.40
9984;DHT22;16737;50.932;6.780;2022-10-16T14:18:01;24.20;90.40
9984;DHT22;16737;50.932;6.780;2022-10-16T14:20:31;24.20;90.50
9984;DHT22;16737;50.932;6.780;2022-10-16T14:23:01;24.20;90.40
9984;DHT22;16737;50.932;6.780;2022-10-16T14:25:30;24.10;90.40
9984;DHT22;16737;50.932;6.780;2022-10-16T14:28:01;24.10;90.30
9984;DHT22;16737;50.932;6.780;2022-10-16T14:30:31;24.00;90.30
9984;DHT22;16737;50.932;6.780;2022-10-16T14:33:02;24.00;90.00
9984;DHT22;16737;50.932;6.780;2022-10-16T14:35:32;23.90;89.70
9984;DHT22;16737;50.932;6.780;2022-10-16T14:38:02;23.80;90.10
9984;DHT22;16737;50.932;6.780;2022-10-16T14:40:32;23.70;90.20
9984;DHT22;16737;50.932;6.780;2022-10-16T14:43:01;23.70;90.20
9984;DHT22;16737;50.932;6.780;2022-10-16T14:45:30;23.60;90.10
9984;DHT22;16737;50.932;6.780;2022-10-16T14:48:04;23.50;90.10
9984;DHT22;16737;50.932;6.780;2022-10-16T14:50:40;23.50;89.60
9984;DHT22;16737;50.932;6.780;2022-10-16T14:53:10;23.50;90.10
9984;DHT22;16737;50.932;6.780;2022-10-16T14:55:38;23.40;90.00
9984;DHT22;16737;50.932;6.780;2022-10-16T14:58:05;23.40;90.20
9984;DHT22;16737;50.932;6.780;2022-10-16T15:00:32;23.30;90.20
9984;DHT22;16737;50.932;6.780;2022-10-16T15:03:00;23.30;90.30
9984;DHT22;16737;50.932;6.780;2022-10-16T15:05:27;23.30;90.30
9984;DHT22;16737;50.932;6.780;2022-10-16T15:07:55;23.20;90.50
9984;DHT22;16737;50.932;6.780;2022-10-16T15:10:24;23.20;90.40
9984;DHT22;16737;50.932;6.780;2022-10-16T15:12:53;23.20;90.30
9984;DHT22;16737;50.932;6.780;2022-10-16T15:15:42;23.20;90.40
9984;DHT22;16737;50.932;6.780;2022-10-16T15:18:11;23.20;90.20
9984;DHT22;16737;50.932;6.780;2022-10-16T15:20:41;23.20;90.40
9984;DHT22;16737;50.932;6.780;2022-10-16T15:23:13;23.20;90.40
9984;DHT22;16737;50.932;6.780;2022-10-16T15:25:43;23.10;90.20
9984;DHT22;16737;50.932;6.780;2022-10-16T15:28:12;23.10;90.40
9984;DHT22;16737;50.932;6.780;2022-10-16T15:30:41;23.10;90.50
9984;DHT22;16737;50.932;6.780;2022-10-16T15:33:13;23.10;90.70
9984;DHT22;16737;50.932;6.780;2022-10-16T15:35:42;23.10;90.70
9984;DHT22;16737;50.932;6.780;2022-10-16T15:38:12;23.00;90.60
9984;DHT22;16737;50.932;6.780;2022-10-16T15:40:40;23.00;90.70
9984;DHT22;16737;50.932;6.780;2022-10-16T15:43:07;23.00;90.90
9984;DHT22;16737;50.932;6.780;2022-10-16T15:45:35;23.00;91.00
9984;DHT22;16737;50.932;6.780;2022-10-16T15:48:03;23.00;91.00
9984;DHT22;16737;50.932;6.780;2022-10-16T15:50:32;22.90;91.00
9984;DHT22;16737;50.932;6.780;2022-10-16T15:52:59;22.90;91.00
9984;DHT22;16737;50.932;6.780;2022-10-16T15:55:26;22.90;91.00
9984;DHT22;16737;50.932;6.780;2022-10-16T15:57:53;22.90;91.00
9984;DHT22;16737;50.932;6.780;2022-10-16T16:00:20;22.80;91.10
9984;DHT22;16737;50.932;6.780;2022-10-16T16:02:50;22.80;91.20
9984;DHT22;16737;50.932;6.780;2022-10-16T16:05:20;22.80;91.10
9984;DHT22;16737;50.932;6.780;2022-10-16T16:07:49;22.70;91.00
9984;DHT22;16737;50.932;6.780;2022-10-16T16:10:17;22.60;91.00
9984;DHT22;16737;50.932;6.780;2022-10-16T16:12:46;22.60;91.20
9984;DHT22;16737;50.932;6.780;2022-10-16T16:15:15;22.50;91.10
9984;DHT22;16737;50.932;6.780;2022-10-16T16:17:42;22.40;91.10
9984;DHT22;16737;50.932;6.780;2022-10-16T16:20:10;22.40;91.20